createdAt,value
2018-04-22T00:02:20.825Z,43.10
2018-04-22T00:04:49.038Z,44.10
2018-04-22T00:07:17.273Z,44.90
2018-04-22T00:09:45.396Z,44.80
2018-04-22T00:12:13.520Z,44.30
2018-04-22T00:14:41.694Z,44.40
2018-04-22T00:17:09.885Z,44.60
2018-04-22T00:19:38.037Z,45.20
2018-04-22T00:22:06.389Z,45.50
2018-04-22T00:24:35.305Z,45.90
2018-04-22T00:27:03.467Z,45.90
2018-04-22T00:29:31.644Z,46.40
2018-04-22T00:31:59.780Z,47.20
2018-04-22T00:34:27.928Z,47.50
2018-04-22T00:36:56.090Z,47.80
2018-04-22T00:39:24.251Z,47.90
2018-04-22T00:41:52.934Z,47.80
2018-04-22T00:44:21.170Z,47.70
2018-04-22T00:46:50.103Z,48.10
2018-04-22T00:49:18.228Z,48.10
2018-04-22T00:51:47.200Z,48.50
2018-04-22T00:54:20.956Z,48.30
2018-04-22T00:56:49.254Z,48.20
2018-04-22T00:59:17.442Z,48.10
2018-04-22T01:01:45.650Z,48.10
2018-04-22T01:04:14.557Z,48.60
2018-04-22T01:06:42.721Z,48.60
2018-04-22T01:09:11.762Z,49.50
2018-04-22T01:11:39.945Z,49.40
2018-04-22T01:14:08.107Z,49.80
2018-04-22T01:16:36.375Z,50.40
2018-04-22T01:19:04.501Z,50.70
2018-04-22T01:21:33.426Z,50.80
2018-04-22T01:24:01.706Z,50.80
2018-04-22T01:26:29.848Z,51.00
2018-04-22T01:28:58.777Z,51.90
2018-04-22T01:31:26.947Z,51.90
2018-04-22T01:33:55.226Z,52.20
2018-04-22T01:36:23.414Z,53.10
2018-04-22T01:38:51.586Z,53.00
2018-04-22T01:41:19.761Z,53.00
2018-04-22T01:43:47.929Z,53.00
2018-04-22T01:46:16.110Z,53.00
2018-04-22T01:48:44.244Z,52.90
2018-04-22T01:51:12.535Z,53.30
2018-04-22T01:53:40.680Z,53.80
2018-04-22T01:56:09.623Z,54.10
2018-04-22T01:58:37.820Z,54.10
2018-04-22T02:01:06.103Z,54.30
2018-04-22T02:03:35.157Z,54.50
2018-04-22T02:06:03.301Z,54.50
2018-04-22T02:08:31.459Z,54.90
2018-04-22T02:10:59.648Z,54.70
2018-04-22T02:13:27.817Z,54.60
2018-04-22T02:15:55.978Z,54.70
2018-04-22T02:18:24.357Z,54.80
2018-04-22T02:20:52.576Z,55.30
2018-04-22T02:23:20.709Z,55.50
2018-04-22T02:25:48.850Z,55.90
2018-04-22T02:28:16.996Z,56.20
2018-04-22T02:30:45.222Z,56.50
2018-04-22T02:33:13.515Z,56.60
2018-04-22T02:35:41.695Z,56.90
2018-04-22T02:38:09.841Z,57.10
2018-04-22T02:40:38.155Z,57.60
2018-04-22T02:43:06.320Z,58.10
2018-04-22T02:45:34.469Z,58.50
2018-04-22T02:48:02.609Z,58.70
2018-04-22T02:50:30.768Z,58.90
2018-04-22T02:52:59.002Z,59.10
2018-04-22T02:55:27.125Z,59.00
2018-04-22T02:57:55.290Z,59.40
2018-04-22T03:00:24.312Z,60.50
2018-04-22T03:02:52.441Z,60.10
2018-04-22T03:05:20.585Z,60.30
2018-04-22T03:07:48.748Z,60.60
2018-04-22T03:10:16.926Z,60.70
2018-04-22T03:12:45.297Z,60.90
2018-04-22T03:15:13.490Z,61.30
2018-04-22T03:17:41.651Z,61.60
2018-04-22T03:20:09.814Z,61.80
2018-04-22T03:22:37.973Z,61.80
2018-04-22T03:25:06.211Z,61.60
2018-04-22T03:27:34.440Z,61.90
2018-04-22T03:30:02.644Z,62.00
2018-04-22T03:32:30.905Z,62.50
2018-04-22T03:34:59.098Z,62.70
2018-04-22T03:37:27.235Z,62.90
2018-04-22T03:39:55.714Z,63.60
2018-04-22T03:42:23.980Z,64.10
2018-04-22T03:44:52.163Z,64.80
2018-04-22T03:47:20.390Z,64.80
2018-04-22T03:49:48.660Z,64.80
2018-04-22T03:52:16.820Z,63.10
2018-04-22T03:54:45.061Z,63.70
2018-04-22T03:57:13.495Z,63.50
2018-04-22T03:59:42.413Z,62.90
2018-04-22T04:02:10.611Z,62.80
2018-04-22T04:04:38.780Z,63.10
2018-04-22T04:07:07.417Z,64.10
2018-04-22T04:09:36.336Z,64.50
2018-04-22T04:12:04.589Z,64.30
2018-04-22T04:14:33.601Z,64.40
2018-04-22T04:17:01.785Z,64.30
2018-04-22T04:19:47.895Z,63.80
2018-04-22T04:22:34.245Z,63.50
2018-04-22T04:28:14.128Z,62.40
2018-04-22T04:30:42.306Z,62.30
2018-04-22T04:33:10.441Z,62.00
2018-04-22T04:35:38.618Z,62.80
2018-04-22T04:38:06.785Z,61.30
2018-04-22T04:40:35.030Z,61.80
2018-04-22T04:43:03.177Z,60.50
2018-04-22T04:45:31.364Z,60.20
2018-04-22T04:47:59.525Z,59.60
2018-04-22T04:50:27.714Z,59.00
2018-04-22T04:52:55.840Z,58.70
2018-04-22T04:55:24.785Z,57.80
2018-04-22T04:57:53.055Z,57.80
2018-04-22T05:00:21.222Z,57.70
2018-04-22T05:02:50.127Z,56.70
2018-04-22T05:05:18.403Z,56.80
2018-04-22T05:21:38.988Z,54.20
2018-04-22T05:24:07.970Z,52.40
2018-04-22T05:26:36.889Z,50.80
2018-04-22T05:29:05.046Z,50.80
2018-04-22T05:31:33.994Z,49.10
2018-04-22T05:34:02.995Z,49.00
2018-04-22T05:36:31.173Z,48.30
2018-04-22T05:38:59.300Z,48.40
2018-04-22T05:41:27.534Z,46.20
2018-04-22T05:43:56.513Z,44.50
2018-04-22T05:46:24.689Z,44.50
2018-04-22T05:48:52.815Z,43.60
2018-04-22T05:51:20.968Z,42.10
2018-04-22T05:53:49.090Z,41.60
2018-04-22T05:56:17.249Z,39.50
2018-04-22T05:58:45.408Z,38.50
2018-04-22T06:01:13.538Z,38.60
2018-04-22T06:03:42.450Z,38.60
2018-04-22T06:06:10.597Z,38.60
2018-04-22T06:08:39.588Z,38.20
2018-04-22T06:11:07.676Z,38.10
2018-04-22T06:13:35.851Z,37.10
2018-04-22T06:16:04.028Z,38.70
2018-04-22T06:18:32.176Z,37.80
2018-04-22T06:21:00.316Z,37.60
2018-04-22T06:23:28.436Z,37.50
2018-04-22T06:25:57.374Z,37.00
2018-04-22T06:28:25.538Z,37.10
2018-04-22T06:30:53.688Z,37.70
2018-04-22T06:33:21.834Z,36.30
2018-04-22T06:35:50.749Z,34.70
2018-04-22T06:38:18.892Z,34.60
2018-04-22T06:40:47.005Z,33.50
2018-04-22T06:43:15.152Z,34.60
2018-04-22T06:45:44.066Z,33.50
2018-04-22T06:48:12.217Z,33.40
2018-04-22T06:50:40.390Z,32.30
2018-04-22T06:53:08.567Z,30.60
2018-04-22T06:55:36.742Z,31.90
2018-04-22T06:58:04.866Z,31.40
2018-04-22T07:00:33.091Z,32.00
2018-04-22T07:03:01.263Z,30.20
2018-04-22T07:05:29.719Z,29.60
2018-04-22T07:07:57.845Z,31.10
2018-04-22T07:10:25.989Z,29.60
2018-04-22T07:12:54.113Z,30.40
2018-04-22T07:15:22.291Z,29.90
2018-04-22T07:17:50.429Z,29.50
2018-04-22T07:20:18.540Z,30.20
2018-04-22T07:22:46.689Z,29.30
2018-04-22T07:25:14.808Z,29.50
2018-04-22T07:27:43.745Z,28.80
2018-04-22T07:30:11.921Z,28.70
2018-04-22T07:32:40.095Z,28.90
2018-04-22T07:35:08.220Z,29.10
2018-04-22T07:37:36.364Z,28.80
2018-04-22T07:40:05.289Z,26.20
2018-04-22T07:42:33.440Z,26.30
2018-04-22T07:45:02.346Z,26.40
2018-04-22T07:47:31.229Z,27.20
2018-04-22T07:50:00.132Z,26.70
2018-04-22T07:52:28.253Z,26.60
2018-04-22T07:54:56.393Z,27.00
2018-04-22T07:57:24.513Z,26.90
2018-04-22T07:59:52.681Z,27.10
2018-04-22T08:02:20.807Z,27.40
2018-04-22T08:04:48.994Z,28.30
2018-04-22T08:07:17.117Z,27.80
2018-04-22T08:09:46.036Z,27.00
2018-04-22T08:12:14.161Z,27.00
2018-04-22T08:14:42.313Z,26.40
2018-04-22T08:17:10.433Z,26.90
2018-04-22T08:19:39.317Z,27.40
2018-04-22T08:22:08.259Z,27.40
2018-04-22T08:24:36.429Z,27.30
2018-04-22T08:27:04.595Z,27.40
2018-04-22T08:29:32.776Z,27.20
2018-04-22T08:32:00.897Z,29.00
2018-04-22T08:34:29.841Z,28.80
2018-04-22T08:36:58.056Z,28.80
2018-04-22T08:39:26.965Z,27.90
2018-04-22T08:41:55.167Z,27.80
2018-04-22T08:44:23.376Z,27.40
2018-04-22T08:46:51.571Z,26.70
2018-04-22T08:49:20.597Z,26.70
2018-04-22T08:51:48.879Z,26.70
2018-04-22T08:54:17.179Z,24.60
2018-04-22T08:56:45.417Z,24.60
2018-04-22T08:59:13.694Z,25.60
2018-04-22T09:01:42.734Z,25.40
2018-04-22T09:04:11.100Z,25.30
2018-04-22T09:06:39.559Z,24.80
2018-04-22T09:09:08.677Z,25.80
2018-04-22T09:11:37.339Z,24.30
2018-04-22T09:14:06.013Z,24.60
2018-04-22T09:16:34.714Z,25.00
2018-04-22T09:19:03.315Z,24.00
2018-04-22T09:21:32.098Z,25.50
2018-04-22T09:24:01.919Z,25.10
2018-04-22T09:26:31.310Z,25.10
2018-04-22T09:29:00.153Z,24.00
2018-04-22T09:31:28.701Z,24.10
2018-04-22T09:33:58.796Z,23.70
2018-04-22T09:36:28.795Z,23.60
2018-04-22T09:38:57.755Z,22.20
2018-04-22T09:41:26.694Z,21.00
2018-04-22T09:43:55.717Z,21.80
2018-04-22T09:46:24.358Z,22.50
2018-04-22T09:48:53.757Z,21.70
2018-04-22T09:51:22.798Z,21.10
2018-04-22T09:53:51.697Z,20.10
2018-04-22T09:56:21.097Z,20.10
2018-04-22T09:58:50.976Z,19.10
2018-04-22T10:01:20.137Z,19.20
2018-04-22T10:03:49.560Z,18.90
2018-04-22T10:06:18.276Z,20.40
2018-04-22T10:08:47.296Z,17.00
2018-04-22T10:11:17.411Z,17.60
2018-04-22T10:13:46.876Z,17.70
2018-04-22T10:16:16.056Z,16.50
2018-04-22T10:18:45.378Z,17.80
2018-04-22T10:21:15.355Z,17.70
2018-04-22T10:23:46.521Z,16.80
2018-04-22T10:26:17.476Z,16.70
2018-04-22T10:28:47.496Z,16.30
2018-04-22T10:31:19.217Z,16.70
2018-04-22T10:33:51.873Z,16.70
2018-04-22T10:39:21.458Z,17.00
2018-04-22T10:41:49.634Z,17.00
2018-04-22T10:44:17.799Z,16.30
2018-04-22T10:46:46.027Z,15.20
2018-04-22T10:49:14.887Z,16.00
2018-04-22T10:51:43.068Z,16.00
2018-04-22T10:54:12.011Z,14.10
2018-04-22T10:56:40.128Z,14.10
2018-04-22T10:59:09.090Z,12.70
2018-04-22T11:01:37.245Z,12.60
2018-04-22T11:04:05.394Z,12.80
2018-04-22T11:06:33.574Z,13.60
2018-04-22T11:09:01.722Z,13.20
2018-04-22T11:11:29.874Z,16.00
2018-04-22T11:13:58.811Z,13.80
2018-04-22T11:16:26.944Z,13.80
2018-04-22T11:18:55.863Z,13.60
2018-04-22T11:21:24.003Z,13.60
2018-04-22T11:23:52.167Z,12.00
2018-04-22T11:26:20.313Z,12.10
2018-04-22T11:28:48.467Z,12.90
2018-04-22T11:31:16.665Z,12.10
2018-04-22T11:33:44.817Z,9.70
2018-04-22T11:36:12.932Z,9.80
2018-04-22T11:38:41.840Z,9.80
2018-04-22T11:41:10.770Z,9.80
2018-04-22T11:43:38.888Z,9.70
2018-04-22T11:46:07.058Z,8.20
2018-04-22T11:48:35.973Z,7.20
2018-04-22T11:51:04.145Z,6.80
2018-04-22T11:53:32.302Z,5.50
2018-04-22T11:56:01.189Z,6.00
2018-04-22T11:58:29.354Z,5.90
2018-04-22T12:00:57.474Z,5.00
2018-04-22T12:03:25.671Z,4.70
2018-04-22T12:05:53.788Z,4.00
2018-04-22T12:08:22.665Z,3.20
2018-04-22T12:10:50.830Z,3.20
2018-04-22T12:13:18.981Z,3.10
2018-04-22T12:15:47.149Z,1.70
2018-04-22T12:18:15.262Z,1.00
2018-04-22T12:20:44.187Z,1.00
2018-04-22T12:23:12.368Z,1.00
2018-04-22T12:25:40.570Z,2.10
2018-04-22T12:28:08.724Z,1.40
2018-04-22T12:30:37.621Z,2.00
2018-04-22T12:33:05.753Z,2.80
2018-04-22T12:35:33.892Z,3.20
2018-04-22T12:38:02.062Z,1.60
2018-04-22T12:40:30.191Z,1.00
2018-04-22T12:42:58.345Z,1.00
2018-04-22T12:45:26.491Z,1.00
2018-04-22T12:47:55.458Z,1.60
2018-04-22T12:50:23.568Z,1.00
2018-04-22T12:52:51.725Z,1.00
2018-04-22T12:55:20.698Z,1.00
2018-04-22T12:57:48.816Z,1.00
2018-04-22T13:00:16.932Z,1.40
2018-04-22T13:02:45.069Z,1.00
2018-04-22T13:05:13.214Z,1.00
2018-04-22T13:07:42.121Z,1.00
2018-04-22T13:10:10.323Z,1.00
2018-04-22T13:12:38.497Z,1.00
2018-04-22T13:15:06.646Z,1.00
2018-04-22T13:17:34.794Z,1.00
2018-04-22T13:20:03.689Z,1.00
2018-04-22T13:22:32.580Z,1.00
2018-04-22T13:25:01.492Z,1.00
2018-04-22T13:27:29.648Z,1.00
2018-04-22T13:29:57.753Z,1.00
2018-04-22T13:32:25.893Z,1.00
2018-04-22T13:34:54.071Z,1.00
2018-04-22T13:37:22.209Z,1.00
2018-04-22T13:39:50.341Z,1.00
2018-04-22T13:42:18.484Z,1.00
2018-04-22T13:44:46.603Z,1.00
2018-04-22T13:47:14.745Z,1.00
2018-04-22T13:49:42.887Z,1.00
2018-04-22T13:52:11.832Z,1.00
2018-04-22T13:54:39.981Z,1.00
2018-04-22T13:57:08.100Z,1.00
2018-04-22T13:59:36.268Z,1.00
2018-04-22T14:02:04.389Z,1.00
2018-04-22T14:04:32.551Z,1.00
2018-04-22T14:07:00.698Z,1.00
2018-04-22T14:09:30.564Z,1.00
2018-04-22T14:11:58.722Z,1.00
2018-04-22T14:14:26.876Z,1.00
2018-04-22T14:16:55.095Z,1.00
2018-04-22T14:19:23.241Z,1.00
2018-04-22T14:21:51.417Z,1.00
2018-04-22T14:24:19.620Z,1.00
2018-04-22T14:26:47.793Z,1.00
2018-04-22T14:29:15.921Z,1.00
2018-04-22T14:31:44.102Z,1.00
2018-04-22T14:34:13.101Z,1.00
2018-04-22T14:36:41.218Z,1.00
2018-04-22T14:39:09.420Z,1.00
2018-04-22T14:41:38.305Z,1.00
2018-04-22T14:44:25.336Z,1.00
2018-04-22T14:46:53.477Z,1.00
2018-04-22T14:49:23.447Z,1.00
2018-04-22T14:51:51.609Z,1.00
2018-04-22T14:54:19.725Z,1.00
2018-04-22T14:56:47.875Z,1.00
2018-04-22T14:59:16.011Z,1.00
2018-04-22T15:01:44.193Z,1.00
2018-04-22T15:04:12.333Z,1.00
2018-04-22T15:06:41.212Z,1.00
2018-04-22T15:09:09.336Z,1.00
2018-04-22T15:11:37.493Z,1.00
2018-04-22T15:14:05.617Z,1.00
2018-04-22T15:16:33.764Z,1.00
2018-04-22T15:19:01.918Z,1.00
2018-04-22T15:21:30.040Z,1.00
2018-04-22T15:23:58.169Z,1.00
2018-04-22T15:26:26.341Z,1.00
2018-04-22T15:28:54.484Z,1.00
2018-04-22T15:31:23.411Z,1.00
2018-04-22T15:33:51.573Z,1.00
2018-04-22T15:36:19.735Z,1.00
2018-04-22T15:38:47.926Z,1.00
2018-04-22T15:41:16.070Z,1.70
2018-04-22T15:43:44.226Z,2.70
2018-04-22T15:46:13.181Z,3.70
2018-04-22T15:48:41.320Z,3.70
2018-04-22T15:51:09.441Z,2.70
2018-04-22T15:56:34.842Z,3.10
2018-04-22T15:59:02.992Z,4.50
2018-04-22T16:01:31.171Z,5.30
2018-04-22T17:06:02.086Z,10.30
2018-04-22T17:26:13.469Z,13.70
2018-04-22T18:21:53.787Z,20.50
2018-04-22T18:24:21.983Z,21.10
2018-04-22T18:44:34.916Z,23.60
2018-04-22T19:07:44.742Z,26.90
2018-04-22T19:10:12.883Z,26.00
2018-04-22T19:12:41.042Z,26.50
2018-04-22T19:15:09.233Z,26.70
2018-04-22T19:38:41.782Z,27.70
2018-04-22T20:01:50.839Z,29.60
2018-04-22T20:04:18.966Z,30.10
2018-04-22T20:06:47.119Z,30.00
2018-04-22T20:09:15.481Z,30.10
2018-04-22T20:11:43.655Z,30.50
2018-04-22T20:14:11.801Z,30.70
2018-04-22T20:16:39.955Z,31.30
2018-04-22T20:19:08.110Z,31.10
2018-04-22T20:21:37.000Z,31.20
2018-04-22T20:24:05.972Z,32.10
2018-04-22T20:26:35.148Z,31.10
2018-04-22T20:29:03.310Z,30.90
2018-04-22T20:31:31.483Z,31.50
2018-04-22T20:33:59.653Z,31.50
2018-04-22T20:36:27.804Z,31.40
2018-04-22T20:38:55.945Z,31.40
2018-04-22T20:41:24.109Z,31.80
2018-04-22T20:43:52.301Z,32.00
2018-04-22T20:46:21.206Z,31.80
2018-04-22T20:48:49.372Z,31.70
2018-04-22T20:51:18.322Z,31.90
2018-04-22T20:53:46.481Z,32.00
2018-04-22T20:56:14.816Z,32.90
2018-04-22T20:58:43.922Z,33.10
2018-04-22T21:01:12.061Z,33.10
2018-04-22T21:03:40.209Z,33.20
2018-04-22T21:06:08.362Z,33.40
2018-04-22T21:08:36.504Z,33.00
2018-04-22T21:11:04.641Z,33.00
2018-04-22T21:13:32.797Z,34.80
2018-04-22T21:16:00.957Z,34.80
2018-04-22T21:18:29.079Z,33.90
2018-04-22T21:20:57.995Z,33.60
2018-04-22T21:23:26.129Z,33.50
2018-04-22T21:25:54.241Z,33.90
2018-04-22T21:28:22.449Z,34.60
2018-04-22T21:30:50.573Z,34.40
2018-04-22T21:33:18.729Z,33.80
2018-04-22T21:35:47.653Z,31.70
2018-04-22T21:38:15.846Z,31.60
2018-04-22T21:40:43.977Z,31.00
2018-04-22T21:43:12.889Z,29.50
2018-04-22T21:45:41.062Z,29.60
2018-04-22T21:48:09.226Z,29.50
2018-04-22T21:50:37.382Z,29.30
2018-04-22T21:53:06.276Z,29.20
2018-04-22T21:55:35.191Z,29.50
2018-04-22T21:58:03.364Z,29.50
2018-04-22T22:00:31.604Z,29.40
2018-04-22T22:03:00.574Z,29.50
2018-04-22T22:05:28.701Z,29.40
2018-04-22T22:07:56.854Z,29.40
2018-04-22T22:10:24.993Z,29.50
2018-04-22T22:12:53.120Z,29.40
2018-04-22T22:15:21.244Z,29.70
2018-04-22T22:17:50.186Z,30.20
2018-04-22T22:20:18.312Z,30.20
2018-04-22T22:22:47.263Z,30.90
2018-04-22T22:25:15.404Z,30.90
2018-04-22T22:27:43.550Z,31.10
2018-04-22T22:30:12.467Z,31.60
2018-04-22T22:32:40.613Z,31.70
2018-04-22T22:35:09.496Z,31.90
2018-04-22T22:37:38.397Z,31.80
2018-04-22T22:40:07.331Z,32.50
2018-04-22T22:42:35.491Z,32.50
2018-04-22T22:45:03.608Z,33.10
2018-04-22T22:47:31.745Z,33.20
2018-04-22T22:49:59.898Z,34.40
2018-04-22T22:52:28.187Z,34.40
2018-04-22T22:54:56.337Z,34.80
2018-04-22T22:57:24.485Z,35.60
2018-04-22T22:59:52.636Z,34.20
2018-04-22T23:02:20.815Z,36.40
2018-04-22T23:04:48.936Z,35.00
2018-04-22T23:07:17.049Z,35.50
2018-04-22T23:09:45.189Z,35.20
2018-04-22T23:12:13.345Z,35.50
2018-04-22T23:14:41.489Z,35.50
2018-04-22T23:17:09.615Z,35.50
2018-04-22T23:19:37.733Z,34.80
2018-04-22T23:22:05.924Z,36.90
2018-04-22T23:24:34.806Z,38.00
2018-04-22T23:27:03.730Z,39.30
2018-04-22T23:29:31.889Z,39.30
2018-04-22T23:32:00.038Z,40.10
2018-04-22T23:34:28.926Z,42.00
2018-04-22T23:36:57.874Z,42.20
2018-04-22T23:39:26.005Z,42.20
2018-04-22T23:41:54.889Z,42.60
2018-04-22T23:44:23.826Z,43.60
2018-04-22T23:46:51.953Z,43.50
2018-04-22T23:49:20.879Z,44.20
2018-04-22T23:51:49.046Z,44.10
2018-04-22T23:54:17.218Z,44.50
2018-04-22T23:56:45.345Z,45.30
2018-04-22T23:59:13.460Z,46.60
